Terminal Aerodrome Forecast
Issued by NWS

Home | Current Version | Previous Version | Text Only | Print | Product List | Glossary Off
Versions: 1 2 3 4 5 6 7 8 9 10 11 12 13 14 15 16 17 18 19 20 21 22 23 24 25 26 27 28

000
FTUS44 KLZK 170800 AAA
TAFLIT
TAF AMD
KLIT 170800Z 1708/1806 VRB04KT P6SM -RA SCT015 OVC060
      TEMPO 1708/1710 3SM RA BR BKN015
     FM171000 VRB03KT 4SM -RA BKN008 OVC012
     FM171200 VRB03KT 5SM BR OVC012
     FM171800 VRB04KT P6SM BKN015 OVC035=

USA.gov is the U.S. government's official web portal to all federal, state and local government web resources and services.